Time;durP1;ratioP1;P1;durP2;ratioP2;P2;SDS_P1;SDS_P2;PMS_P1;PMS_P2;Temp;Humidity;BMP_temperature;BMP_pressure;BME280_temperature;BME280_humidity;BME280_pressure;Samples;Min_cycle;Max_cycle;Signal;HPM_P1;HPM_P2
2022/12/15 00:41:05;;;;;;;8.65;1.55;;;;;;;;;;5085561;28;20071;-65
2022/12/15 00:43:32;;;;;;;4.40;1.65;;;;;;;;;;5103565;28;20047;-65
2022/12/15 00:48:44;;;;;;;8.32;2.20;;;;;;;;;;5085562;28;20470;-66
2022/12/15 00:51:10;;;;;;;3.08;1.17;;;;;;;;;;5106566;28;20371;-65
2022/12/15 01:21:07;;;;;;;3.85;1.45;;;;;;;;;;5081512;28;20047;-65
2022/12/15 01:23:34;;;;;;;3.35;1.23;;;;;;;;;;5080957;28;20055;-65
2022/12/15 01:26:00;;;;;;;5.75;1.30;;;;;;;;;;5103050;28;20051;-65
2022/12/15 01:28:27;;;;;;;5.78;1.23;;;;;;;;;;5082790;28;20075;-65
2022/12/15 01:30:53;;;;;;;10.95;1.98;;;;;;;;;;5099725;28;20067;-65
2022/12/15 01:33:20;;;;;;;7.68;1.40;;;;;;;;;;5094864;28;20438;-66
2022/12/15 01:35:59;;;;;;;4.95;1.13;;;;;;;;;;5101701;28;20063;-65
2022/12/15 01:38:26;;;;;;;4.25;1.20;;;;;;;;;;5082289;28;20044;-65
2022/12/15 01:40:54;;;;;;;6.50;1.42;;;;;;;;;;5099390;28;20046;-64
2022/12/15 01:43:23;;;;;;;8.52;2.08;;;;;;;;;;5100828;28;20402;-65
2022/12/15 01:45:51;;;;;;;9.50;1.60;;;;;;;;;;5102567;28;20040;-65
2022/12/15 01:48:20;;;;;;;21.50;3.35;;;;;;;;;;5102411;28;20108;-65
2022/12/15 01:50:57;;;;;;;9.43;2.50;;;;;;;;;;5100566;28;20043;-65
2022/12/15 01:53:23;;;;;;;15.38;2.17;;;;;;;;;;5097972;28;20056;-65
2022/12/15 01:55:50;;;;;;;9.95;1.88;;;;;;;;;;5098755;28;20506;-66
2022/12/15 01:58:16;;;;;;;12.07;2.13;;;;;;;;;;5083493;28;20039;-66
2022/12/15 02:00:42;;;;;;;9.15;1.02;;;;;;;;;;5099625;28;20044;-66
2022/12/15 02:03:09;;;;;;;9.18;1.00;;;;;;;;;;5081247;28;20142;-66
2022/12/15 02:05:35;;;;;;;13.82;1.33;;;;;;;;;;5079256;28;20051;-66
2022/12/15 02:08:03;;;;;;;4.72;0.70;;;;;;;;;;5095288;28;20096;-66
2022/12/15 02:10:36;;;;;;;10.15;1.05;;;;;;;;;;5100654;28;20055;-66
2022/12/15 02:13:09;;;;;;;8.35;1.15;;;;;;;;;;5098695;28;20084;-66
2022/12/15 02:15:41;;;;;;;8.40;0.85;;;;;;;;;;5100311;28;20491;-66
2022/12/15 02:18:21;;;;;;;7.90;0.82;;;;;;;;;;5079480;28;20172;-66
2022/12/15 02:20:54;;;;;;;4.07;0.90;;;;;;;;;;5097655;28;20039;-66
2022/12/15 02:23:32;;;;;;;4.80;0.70;;;;;;;;;;5095208;28;20122;-66
2022/12/15 02:26:00;;;;;;;5.63;0.75;;;;;;;;;;5098463;28;20048;-66
2022/12/15 02:28:45;;;;;;;11.93;0.93;;;;;;;;;;5078161;28;20494;-66
2022/12/15 02:34:02;;;;;;;6.28;0.70;;;;;;;;;;5099961;28;20040;-66
2022/12/15 02:36:33;;;;;;;4.35;0.90;;;;;;;;;;5079687;28;20078;-65
2022/12/15 02:38:59;;;;;;;6.72;0.70;;;;;;;;;;5100375;28;20162;-66
2022/12/15 02:41:42;;;;;;;5.82;1.13;;;;;;;;;;5096643;28;20087;-65
2022/12/15 02:44:11;;;;;;;3.85;0.60;;;;;;;;;;5099225;28;20131;-66
2022/12/15 02:46:37;;;;;;;7.32;1.30;;;;;;;;;;5065046;28;20044;-66
2022/12/15 02:49:11;;;;;;;9.48;0.88;;;;;;;;;;5096710;28;20044;-66
2022/12/15 02:51:46;;;;;;;3.13;0.88;;;;;;;;;;5080301;28;20051;-65
2022/12/15 02:54:19;;;;;;;5.15;0.50;;;;;;;;;;5099266;28;20047;-66
2022/12/15 02:56:52;;;;;;;11.35;0.90;;;;;;;;;;5096755;28;20038;-66
2022/12/15 02:59:21;;;;;;;4.85;0.90;;;;;;;;;;5081456;28;20044;-66
2022/12/15 03:01:55;;;;;;;7.63;1.00;;;;;;;;;;5100452;28;20539;-66
2022/12/15 03:04:22;;;;;;;6.88;1.10;;;;;;;;;;5097398;28;20047;-65
2022/12/15 03:06:57;;;;;;;8.88;1.30;;;;;;;;;;5080225;28;20148;-66
2022/12/15 03:09:23;;;;;;;8.88;1.95;;;;;;;;;;5081234;28;20064;-66
2022/12/15 03:11:49;;;;;;;7.72;1.58;;;;;;;;;;5099168;28;20410;-66
2022/12/15 03:14:15;;;;;;;5.53;0.80;;;;;;;;;;5099515;28;20028;-66
2022/12/15 03:16:42;;;;;;;9.35;1.20;;;;;;;;;;5098147;28;20073;-66
2022/12/15 03:19:08;;;;;;;7.57;1.60;;;;;;;;;;5080444;28;20428;-65
2022/12/15 03:21:34;;;;;;;11.23;1.38;;;;;;;;;;5099787;28;20463;-66
2022/12/15 03:24:00;;;;;;;4.25;0.80;;;;;;;;;;5080451;28;20043;-66
2022/12/15 03:26:26;;;;;;;6.38;0.90;;;;;;;;;;5098363;28;20052;-65
2022/12/15 03:28:52;;;;;;;7.47;1.42;;;;;;;;;;5097865;28;20050;-66
2022/12/15 03:31:19;;;;;;;6.70;0.90;;;;;;;;;;5083026;28;20083;-65
2022/12/15 03:33:45;;;;;;;10.07;1.02;;;;;;;;;;5101246;28;20055;-65
2022/12/15 03:36:11;;;;;;;10.13;1.65;;;;;;;;;;5098325;28;20341;-65
2022/12/15 03:38:37;;;;;;;4.97;1.05;;;;;;;;;;5101475;28;20537;-66
2022/12/15 03:41:03;;;;;;;7.10;1.75;;;;;;;;;;5105078;28;20503;-65
2022/12/15 03:43:29;;;;;;;2.83;0.93;;;;;;;;;;5103088;28;20123;-65
2022/12/15 03:45:55;;;;;;;4.80;1.10;;;;;;;;;;5101559;28;20051;-65
2022/12/15 03:48:21;;;;;;;6.55;1.00;;;;;;;;;;5083451;28;20048;-66
2022/12/15 03:50:49;;;;;;;7.78;1.00;;;;;;;;;;5105391;28;20055;-65
2022/12/15 03:53:15;;;;;;;6.85;1.20;;;;;;;;;;5068665;28;20043;-65
2022/12/15 03:55:41;;;;;;;7.72;1.00;;;;;;;;;;5083977;28;20058;-65
2022/12/15 03:58:07;;;;;;;7.68;1.27;;;;;;;;;;5084361;28;20075;-65
2022/12/15 04:00:33;;;;;;;6.20;1.13;;;;;;;;;;5100299;28;20074;-66
2022/12/15 04:03:00;;;;;;;8.73;1.15;;;;;;;;;;5102450;28;20447;-65
2022/12/15 04:05:28;;;;;;;6.22;1.08;;;;;;;;;;5101944;28;20063;-66
2022/12/15 04:07:55;;;;;;;6.90;1.90;;;;;;;;;;5081773;28;20044;-65
2022/12/15 04:10:21;;;;;;;5.07;1.10;;;;;;;;;;5104089;28;20450;-65
2022/12/15 04:12:48;;;;;;;5.88;1.38;;;;;;;;;;5100074;28;20493;-65
2022/12/15 04:15:14;;;;;;;7.43;1.30;;;;;;;;;;5103408;28;20058;-65
2022/12/15 04:17:41;;;;;;;7.40;1.40;;;;;;;;;;5100614;28;20039;-65
2022/12/15 04:20:08;;;;;;;10.25;1.92;;;;;;;;;;5081083;28;20494;-65
2022/12/15 04:22:34;;;;;;;11.30;1.70;;;;;;;;;;5101890;28;20253;-64
2022/12/15 05:33:54;;;;;;;9.60;2.00;;;;;;;;;;5100779;28;20052;-64
2022/12/15 05:36:20;;;;;;;14.07;2.20;;;;;;;;;;5100039;28;20093;-65
2022/12/15 05:38:51;;;;;;;8.10;1.90;;;;;;;;;;5098627;28;20047;-64
2022/12/15 05:41:18;;;;;;;15.32;2.30;;;;;;;;;;5098013;28;20062;-65
2022/12/15 05:43:44;;;;;;;9.90;1.67;;;;;;;;;;5091045;28;20092;-64
2022/12/15 05:46:10;;;;;;;12.63;2.10;;;;;;;;;;5076891;27;20364;-64
2022/12/15 05:48:37;;;;;;;12.70;2.25;;;;;;;;;;5101354;28;20079;-65
2022/12/15 05:51:04;;;;;;;14.07;3.38;;;;;;;;;;5079797;28;20055;-64
2022/12/15 05:53:30;;;;;;;11.73;1.98;;;;;;;;;;5099949;28;20138;-65
2022/12/15 05:56:08;;;;;;;13.38;1.90;;;;;;;;;;5098393;28;20140;-66
2022/12/15 05:58:34;;;;;;;10.32;1.80;;;;;;;;;;5099609;28;20035;-65
2022/12/15 06:01:05;;;;;;;6.45;1.50;;;;;;;;;;5099778;28;20055;-65
2022/12/15 06:03:31;;;;;;;11.15;1.83;;;;;;;;;;5098508;28;20383;-64
2022/12/15 06:05:59;;;;;;;11.50;2.08;;;;;;;;;;5082704;28;20080;-65
2022/12/15 06:08:26;;;;;;;14.05;3.00;;;;;;;;;;5101227;28;20047;-64
2022/12/15 06:10:53;;;;;;;13.95;2.20;;;;;;;;;;5101280;28;20040;-64
2022/12/15 06:13:20;;;;;;;8.23;2.15;;;;;;;;;;5100010;28;20042;-65
2022/12/15 06:15:56;;;;;;;6.95;2.13;;;;;;;;;;5098936;28;20047;-64
2022/12/15 06:18:23;;;;;;;12.85;2.00;;;;;;;;;;5097894;28;20047;-73
2022/12/15 06:20:49;;;;;;;7.32;1.67;;;;;;;;;;5100873;28;20050;-65
2022/12/15 06:23:15;;;;;;;9.60;2.58;;;;;;;;;;5103345;28;20499;-65
2022/12/15 06:25:42;;;;;;;13.38;2.60;;;;;;;;;;5103989;28;20233;-64
2022/12/15 06:28:08;;;;;;;9.07;1.63;;;;;;;;;;5104191;28;20040;-64
2022/12/15 06:30:34;;;;;;;7.28;1.80;;;;;;;;;;5106081;28;20058;-65
2022/12/15 06:33:00;;;;;;;10.10;2.33;;;;;;;;;;5112751;28;20198;-64
2022/12/15 06:35:26;;;;;;;8.82;2.50;;;;;;;;;;5088781;28;20054;-65
2022/12/15 06:37:52;;;;;;;11.23;1.80;;;;;;;;;;5083754;28;20040;-64
2022/12/15 06:40:18;;;;;;;11.52;2.22;;;;;;;;;;5105925;28;20123;-64
2022/12/15 06:42:44;;;;;;;6.70;2.45;;;;;;;;;;5105068;28;20059;-64
2022/12/15 06:45:11;;;;;;;12.68;4.18;;;;;;;;;;5087624;28;20122;-64
2022/12/15 06:47:37;;;;;;;10.98;1.85;;;;;;;;;;5085712;28;20055;-64
2022/12/15 06:50:03;;;;;;;7.65;3.00;;;;;;;;;;5102300;28;20498;-65
2022/12/15 06:52:29;;;;;;;12.48;1.88;;;;;;;;;;5100095;28;20630;-65
2022/12/15 06:54:55;;;;;;;12.38;1.77;;;;;;;;;;5099347;28;20044;-64
2022/12/15 06:57:21;;;;;;;13.73;2.58;;;;;;;;;;5083923;28;20130;-65
2022/12/15 06:59:48;;;;;;;7.32;2.08;;;;;;;;;;5100034;28;20164;-64
2022/12/15 07:02:16;;;;;;;14.10;2.47;;;;;;;;;;5082421;28;20059;-65
2022/12/15 07:04:43;;;;;;;13.07;1.92;;;;;;;;;;5107042;28;20047;-65
2022/12/15 07:07:10;;;;;;;13.38;1.80;;;;;;;;;;5091015;28;20044;-65
2022/12/15 07:09:36;;;;;;;9.85;2.30;;;;;;;;;;5103948;28;20084;-65
2022/12/15 07:12:02;;;;;;;14.52;2.40;;;;;;;;;;5077964;28;20051;-65
2022/12/15 07:14:28;;;;;;;13.93;2.47;;;;;;;;;;5105448;28;20046;-65
2022/12/15 07:16:54;;;;;;;14.07;2.88;;;;;;;;;;5102268;28;20115;-65
2022/12/15 07:19:20;;;;;;;7.65;1.48;;;;;;;;;;5110924;28;20035;-65
2022/12/15 07:21:46;;;;;;;8.32;1.90;;;;;;;;;;5100512;28;20097;-64
2022/12/15 07:24:13;;;;;;;11.13;2.40;;;;;;;;;;5104572;28;20054;-65
2022/12/15 07:26:39;;;;;;;10.75;1.83;;;;;;;;;;5106939;28;20051;-65
2022/12/15 07:29:05;;;;;;;10.15;1.88;;;;;;;;;;5104250;28;20082;-65
2022/12/15 07:31:31;;;;;;;9.52;1.77;;;;;;;;;;5084439;28;20387;-65
2022/12/15 07:33:58;;;;;;;8.18;2.10;;;;;;;;;;5095791;28;20085;-65
2022/12/15 07:36:26;;;;;;;14.98;1.92;;;;;;;;;;5104700;28;20054;-65
2022/12/15 07:38:56;;;;;;;9.88;1.85;;;;;;;;;;5109853;28;20055;-65
2022/12/15 07:41:22;;;;;;;11.05;2.03;;;;;;;;;;5087702;28;20047;-65
2022/12/15 07:43:48;;;;;;;12.90;2.20;;;;;;;;;;5107493;28;20059;-65
2022/12/15 07:46:15;;;;;;;16.63;2.42;;;;;;;;;;5108436;28;20116;-65
2022/12/15 07:48:41;;;;;;;11.55;3.00;;;;;;;;;;5108137;28;20044;-65
2022/12/15 07:51:08;;;;;;;9.27;2.58;;;;;;;;;;5106996;28;20471;-65
2022/12/15 07:53:34;;;;;;;9.70;2.97;;;;;;;;;;5107749;28;20046;-64
2022/12/15 07:56:01;;;;;;;11.88;2.60;;;;;;;;;;5090107;28;20044;-64
2022/12/15 07:58:28;;;;;;;17.88;3.28;;;;;;;;;;5106301;28;20039;-64
2022/12/15 08:00:58;;;;;;;11.20;1.83;;;;;;;;;;5078730;28;20455;-64
2022/12/15 08:03:24;;;;;;;12.48;2.50;;;;;;;;;;5103966;28;20059;-64
2022/12/15 08:05:50;;;;;;;14.05;2.55;;;;;;;;;;5101534;28;20039;-63
2022/12/15 08:08:17;;;;;;;6.13;1.90;;;;;;;;;;5102785;28;20043;-64
2022/12/15 08:10:43;;;;;;;13.88;2.40;;;;;;;;;;5086734;28;20055;-63
2022/12/15 08:13:10;;;;;;;17.70;2.88;;;;;;;;;;5105358;28;20397;-73
2022/12/15 08:15:36;;;;;;;15.95;2.90;;;;;;;;;;5104198;28;20083;-65
2022/12/15 08:18:03;;;;;;;9.98;2.55;;;;;;;;;;5088117;28;20423;-65
2022/12/15 08:20:30;;;;;;;9.95;2.72;;;;;;;;;;5090589;28;20115;-65
2022/12/15 08:22:56;;;;;;;18.20;3.63;;;;;;;;;;5089527;28;20493;-65
2022/12/15 08:25:22;;;;;;;12.73;3.20;;;;;;;;;;5088686;28;20062;-63
2022/12/15 08:27:50;;;;;;;12.88;3.78;;;;;;;;;;5108345;28;20065;-63
2022/12/15 08:30:17;;;;;;;12.10;3.80;;;;;;;;;;5102901;28;20094;-64
2022/12/15 08:32:43;;;;;;;16.08;2.72;;;;;;;;;;5088039;28;20119;-64
2022/12/15 08:35:10;;;;;;;16.73;2.70;;;;;;;;;;5108385;28;20065;-64
2022/12/15 08:37:36;;;;;;;9.75;2.55;;;;;;;;;;5105153;28;20028;-64
2022/12/15 08:40:03;;;;;;;14.73;2.70;;;;;;;;;;5103758;28;20043;-63
2022/12/15 08:42:33;;;;;;;7.20;2.58;;;;;;;;;;5102714;28;20063;-63
2022/12/15 08:44:59;;;;;;;12.02;2.70;;;;;;;;;;5104056;28;20077;-64
2022/12/15 08:47:25;;;;;;;12.55;2.92;;;;;;;;;;5105785;28;20050;-64
2022/12/15 08:49:53;;;;;;;10.85;3.03;;;;;;;;;;5099742;28;20387;-64
2022/12/15 08:52:20;;;;;;;10.43;2.92;;;;;;;;;;5105666;28;20044;-64
2022/12/15 08:54:46;;;;;;;7.93;2.90;;;;;;;;;;5102801;28;20036;-64
2022/12/15 08:57:12;;;;;;;14.30;3.25;;;;;;;;;;5084620;28;20040;-64
2022/12/15 08:59:38;;;;;;;21.30;3.00;;;;;;;;;;5103179;28;20406;-64
2022/12/15 09:02:04;;;;;;;9.35;2.85;;;;;;;;;;5101981;28;20052;-64
2022/12/15 09:04:31;;;;;;;11.45;3.50;;;;;;;;;;5101153;28;20455;-64
2022/12/15 09:06:57;;;;;;;19.67;4.70;;;;;;;;;;5105534;28;20032;-65
2022/12/15 09:09:23;;;;;;;14.85;3.33;;;;;;;;;;5104051;28;20040;-64
2022/12/15 09:11:49;;;;;;;7.60;2.78;;;;;;;;;;5083696;28;20400;-64
2022/12/15 09:14:16;;;;;;;12.40;3.15;;;;;;;;;;5084566;28;20036;-64
2022/12/15 09:16:43;;;;;;;9.73;2.90;;;;;;;;;;5082976;28;20063;-63
2022/12/15 09:19:09;;;;;;;17.98;3.20;;;;;;;;;;5104036;28;20039;-64
2022/12/15 09:21:35;;;;;;;15.15;3.33;;;;;;;;;;5097694;28;20036;-64
2022/12/15 09:24:02;;;;;;;15.95;3.80;;;;;;;;;;5103807;28;20050;-64
2022/12/15 09:26:30;;;;;;;13.30;3.22;;;;;;;;;;5103780;28;20122;-64
2022/12/15 09:28:56;;;;;;;11.07;3.30;;;;;;;;;;5100233;28;20483;-64
2022/12/15 09:31:24;;;;;;;11.02;3.28;;;;;;;;;;5101327;28;20492;-64
2022/12/15 09:33:51;;;;;;;15.90;2.90;;;;;;;;;;5101915;28;20042;-64
2022/12/15 09:36:17;;;;;;;14.10;3.33;;;;;;;;;;5099723;28;20036;-64
2022/12/15 09:38:43;;;;;;;16.73;3.50;;;;;;;;;;5102341;28;21018;-64
2022/12/15 09:41:13;;;;;;;16.20;3.42;;;;;;;;;;5081705;28;20143;-66
2022/12/15 09:43:46;;;;;;;13.32;3.33;;;;;;;;;;5083026;28;20135;-64
2022/12/15 09:46:20;;;;;;;13.48;3.65;;;;;;;;;;5082932;28;20119;-64
2022/12/15 09:48:47;;;;;;;7.90;2.88;;;;;;;;;;5106305;28;20070;-64
2022/12/15 09:51:15;;;;;;;16.80;3.20;;;;;;;;;;5108690;28;20051;-65
2022/12/15 09:53:41;;;;;;;19.02;3.60;;;;;;;;;;5098762;28;20378;-72
2022/12/15 09:56:27;;;;;;;10.20;3.25;;;;;;;;;;5103222;28;20039;-64
2022/12/15 09:59:00;;;;;;;14.80;3.13;;;;;;;;;;5096856;28;20403;-64
2022/12/15 10:01:27;;;;;;;17.10;3.20;;;;;;;;;;5102777;28;20371;-68
2022/12/15 10:03:59;;;;;;;12.07;2.78;;;;;;;;;;5087245;28;20047;-64
2022/12/15 10:06:28;;;;;;;14.32;2.65;;;;;;;;;;5104755;28;20387;-64
2022/12/15 10:08:57;;;;;;;12.80;2.92;;;;;;;;;;5103065;28;20043;-64
2022/12/15 10:11:43;;;;;;;17.67;2.78;;;;;;;;;;5085410;28;20040;-64
2022/12/15 10:14:11;;;;;;;12.73;2.40;;;;;;;;;;5104199;28;20395;-64
2022/12/15 10:16:51;;;;;;;16.85;3.10;;;;;;;;;;5088664;28;20047;-63
2022/12/15 10:19:21;;;;;;;8.63;2.83;;;;;;;;;;5100559;28;20092;-64
2022/12/15 10:21:48;;;;;;;12.48;3.67;;;;;;;;;;5113114;28;20044;-64
2022/12/15 10:24:16;;;;;;;14.10;3.72;;;;;;;;;;5095271;28;20111;-65
2022/12/15 10:26:43;;;;;;;16.95;4.90;;;;;;;;;;5094453;28;20047;-65
2022/12/15 10:29:22;;;;;;;14.82;3.50;;;;;;;;;;5094926;28;20051;-65
2022/12/15 10:31:52;;;;;;;13.43;2.75;;;;;;;;;;5095105;28;20048;-65
2022/12/15 10:34:25;;;;;;;13.70;3.05;;;;;;;;;;5112551;28;20047;-65
2022/12/15 10:36:52;;;;;;;13.43;2.92;;;;;;;;;;5113310;28;20044;-65
2022/12/15 10:39:19;;;;;;;9.15;2.50;;;;;;;;;;5113082;28;20043;-65
2022/12/15 10:41:45;;;;;;;9.15;2.97;;;;;;;;;;5086513;28;20530;-65
2022/12/15 10:44:25;;;;;;;16.60;3.67;;;;;;;;;;5074172;28;20048;-65
2022/12/15 10:46:55;;;;;;;15.52;3.63;;;;;;;;;;5106084;28;20554;-65
2022/12/15 10:49:23;;;;;;;12.45;3.47;;;;;;;;;;5094703;28;20043;-65
2022/12/15 10:51:54;;;;;;;11.80;3.05;;;;;;;;;;5109152;28;20039;-65
2022/12/15 10:54:20;;;;;;;16.50;3.33;;;;;;;;;;5108613;28;20035;-64
2022/12/15 10:56:56;;;;;;;12.05;3.10;;;;;;;;;;5103748;28;20495;-65
2022/12/15 10:59:25;;;;;;;13.70;3.05;;;;;;;;;;5101129;28;20036;-65
2022/12/15 11:01:51;;;;;;;12.07;2.85;;;;;;;;;;5103732;28;20035;-64
2022/12/15 11:04:26;;;;;;;12.38;3.03;;;;;;;;;;5086837;28;20044;-64
2022/12/15 11:06:56;;;;;;;13.50;4.00;;;;;;;;;;5106105;28;20050;-65
2022/12/15 11:09:33;;;;;;;16.90;3.28;;;;;;;;;;5087373;28;20044;-65
2022/12/15 11:14:45;;;;;;;11.20;2.78;;;;;;;;;;5103203;28;20459;-65
2022/12/15 11:17:14;;;;;;;12.15;2.65;;;;;;;;;;5086386;28;20055;-65
2022/12/15 11:19:48;;;;;;;11.38;2.75;;;;;;;;;;5085970;28;20559;-65
2022/12/15 11:22:29;;;;;;;15.82;2.70;;;;;;;;;;5099893;28;20043;-65
2022/12/15 11:24:59;;;;;;;23.70;3.45;;;;;;;;;;5102474;28;20596;-65
2022/12/15 11:27:28;;;;;;;10.02;2.35;;;;;;;;;;5101754;28;20048;-65
2022/12/15 11:29:59;;;;;;;9.18;2.85;;;;;;;;;;5101619;28;20043;-65
2022/12/15 11:32:28;;;;;;;11.43;2.05;;;;;;;;;;5105191;28;20043;-65
2022/12/15 11:34:54;;;;;;;12.57;1.92;;;;;;;;;;5103772;28;21642;-66
2022/12/15 11:37:37;;;;;;;9.95;2.40;;;;;;;;;;5104433;28;20054;-66
2022/12/15 11:40:04;;;;;;;11.10;2.38;;;;;;;;;;5104968;28;20058;-66
2022/12/15 11:42:50;;;;;;;9.00;2.38;;;;;;;;;;5105462;28;20142;-66
2022/12/15 11:45:23;;;;;;;9.23;2.00;;;;;;;;;;5087314;28;20087;-66
2022/12/15 11:47:54;;;;;;;13.63;2.42;;;;;;;;;;5090225;28;20501;-67
2022/12/15 11:50:21;;;;;;;9.18;1.60;;;;;;;;;;5087613;28;20059;-67
2022/12/15 11:52:56;;;;;;;10.98;1.75;;;;;;;;;;5103598;28;20391;-68
2022/12/15 11:55:30;;;;;;;15.77;2.15;;;;;;;;;;5108367;28;20390;-68
2022/12/15 11:58:03;;;;;;;9.63;1.83;;;;;;;;;;5106118;28;20039;-69
2022/12/15 12:00:33;;;;;;;8.68;1.67;;;;;;;;;;5107000;28;20104;-68
2022/12/15 12:03:05;;;;;;;9.38;2.13;;;;;;;;;;5108442;28;20032;-69
2022/12/15 12:05:38;;;;;;;13.23;1.80;;;;;;;;;;5105085;28;20066;-70
2022/12/15 12:08:13;;;;;;;15.27;2.47;;;;;;;;;;5088831;28;20043;-69
2022/12/15 12:10:46;;;;;;;12.95;1.98;;;;;;;;;;5108257;28;20042;-70
2022/12/15 12:13:18;;;;;;;11.85;2.05;;;;;;;;;;5106483;28;20123;-70
2022/12/15 12:15:56;;;;;;;12.02;2.88;;;;;;;;;;5108188;28;20390;-70
2022/12/15 12:18:25;;;;;;;14.18;1.75;;;;;;;;;;5087884;28;20052;-70
2022/12/15 12:20:56;;;;;;;10.93;2.65;;;;;;;;;;5108998;28;20067;-70
2022/12/15 12:23:27;;;;;;;11.95;2.40;;;;;;;;;;5111832;28;20058;-71
2022/12/15 12:26:00;;;;;;;10.75;2.35;;;;;;;;;;5111431;28;20498;-71
2022/12/15 12:28:35;;;;;;;13.82;1.90;;;;;;;;;;5093382;28;20423;-71
2022/12/15 12:31:03;;;;;;;10.18;2.13;;;;;;;;;;5112271;28;20479;-72
2022/12/15 12:33:33;;;;;;;9.98;2.42;;;;;;;;;;5110930;28;20039;-72
2022/12/15 12:36:05;;;;;;;13.30;2.22;;;;;;;;;;5092883;28;20043;-70
2022/12/15 12:38:38;;;;;;;13.93;2.55;;;;;;;;;;5092181;28;20046;-70
2022/12/15 12:41:05;;;;;;;10.68;2.45;;;;;;;;;;5091421;28;20552;-70
2022/12/15 12:43:33;;;;;;;14.25;2.10;;;;;;;;;;5108415;28;20344;-70
2022/12/15 12:46:02;;;;;;;6.82;2.20;;;;;;;;;;5108675;28;20051;-70
2022/12/15 12:48:31;;;;;;;15.35;2.95;;;;;;;;;;5094254;28;20044;-70
2022/12/15 12:51:16;;;;;;;11.70;2.63;;;;;;;;;;5102866;28;20116;-70
2022/12/15 12:53:42;;;;;;;9.90;2.22;;;;;;;;;;5105370;28;20078;-71
2022/12/15 12:56:27;;;;;;;8.25;2.38;;;;;;;;;;5076166;28;20043;-71
2022/12/15 12:58:54;;;;;;;7.20;2.65;;;;;;;;;;5086306;28;20050;-71
2022/12/15 13:01:36;;;;;;;13.25;2.97;;;;;;;;;;5105757;28;20177;-70
2022/12/15 13:04:06;;;;;;;8.75;2.88;;;;;;;;;;5092127;28;20134;-70
2022/12/15 13:06:33;;;;;;;12.15;3.70;;;;;;;;;;5102518;28;20131;-71
2022/12/15 13:09:19;;;;;;;14.20;2.80;;;;;;;;;;5103777;27;20070;-71
2022/12/15 13:11:46;;;;;;;14.45;3.22;;;;;;;;;;5106080;28;20100;-71
2022/12/15 13:14:15;;;;;;;12.32;4.32;;;;;;;;;;5097689;28;20075;-71
2022/12/15 13:16:41;;;;;;;12.35;3.88;;;;;;;;;;5098401;28;20066;-71
2022/12/15 13:19:07;;;;;;;18.35;4.45;;;;;;;;;;5080384;28;20104;-72
2022/12/15 13:21:41;;;;;;;13.18;3.10;;;;;;;;;;5078200;28;20602;-72
2022/12/15 13:24:28;;;;;;;12.55;3.17;;;;;;;;;;5104072;28;20040;-72
2022/12/15 13:27:07;;;;;;;17.50;3.67;;;;;;;;;;5081599;28;20090;-72
2022/12/15 13:29:35;;;;;;;13.88;3.35;;;;;;;;;;5080230;28;20387;-72
2022/12/15 13:32:01;;;;;;;13.75;3.78;;;;;;;;;;5098574;28;20051;-72
2022/12/15 13:34:29;;;;;;;17.08;5.30;;;;;;;;;;5086362;28;20450;-72
2022/12/15 13:36:56;;;;;;;17.90;5.30;;;;;;;;;;5097466;28;20498;-72
2022/12/15 13:39:22;;;;;;;21.02;6.20;;;;;;;;;;5100587;28;20437;-71
2022/12/15 13:41:50;;;;;;;19.00;4.72;;;;;;;;;;5100875;28;20055;-71
2022/12/15 13:44:16;;;;;;;11.93;4.32;;;;;;;;;;5101654;28;20448;-71
2022/12/15 13:46:45;;;;;;;18.73;5.45;;;;;;;;;;5094987;28;20087;-71
2022/12/15 13:49:20;;;;;;;15.15;4.78;;;;;;;;;;5085374;28;20050;-69
2022/12/15 13:51:47;;;;;;;17.35;5.05;;;;;;;;;;5101858;28;20059;-71
2022/12/15 13:54:16;;;;;;;16.25;4.63;;;;;;;;;;5086613;28;20045;-71
2022/12/15 13:56:52;;;;;;;12.50;5.60;;;;;;;;;;5101150;28;20055;-71
2022/12/15 13:59:26;;;;;;;12.10;4.88;;;;;;;;;;5084899;28;20047;-71
2022/12/15 14:01:52;;;;;;;;;;;;;;;;;;5098838;28;20460;-71
2022/12/15 14:04:20;;;;;;;18.30;4.03;;;;;;;;;;5077956;28;19919;-71
2022/12/15 14:06:49;;;;;;;11.98;3.53;;;;;;;;;;5082907;28;20455;-70
2022/12/15 14:09:16;;;;;;;16.70;4.28;;;;;;;;;;5101265;28;20059;-70
2022/12/15 14:11:44;;;;;;;9.02;2.03;;;;;;;;;;5099579;28;20062;-70
2022/12/15 14:14:18;;;;;;;13.45;2.22;;;;;;;;;;5103530;28;20051;-69
2022/12/15 14:16:44;;;;;;;14.88;2.95;;;;;;;;;;5108452;28;20040;-67
2022/12/15 14:19:13;;;;;;;9.20;1.80;;;;;;;;;;5104721;28;20460;-66
2022/12/15 14:21:40;;;;;;;9.25;1.63;;;;;;;;;;5105781;28;20084;-66
2022/12/15 14:24:22;;;;;;;14.18;2.13;;;;;;;;;;5106909;28;20125;-70
2022/12/15 14:26:48;;;;;;;9.23;1.77;;;;;;;;;;5104041;28;20495;-69
2022/12/15 14:29:14;;;;;;;5.82;1.70;;;;;;;;;;5106137;28;20089;-69
2022/12/15 14:31:40;;;;;;;10.52;2.13;;;;;;;;;;5102752;28;20040;-70
2022/12/15 14:34:09;;;;;;;5.53;1.73;;;;;;;;;;5101357;28;20122;-70
2022/12/15 14:36:35;;;;;;;12.85;2.58;;;;;;;;;;5105459;28;20427;-71
2022/12/15 14:39:03;;;;;;;8.73;2.92;;;;;;;;;;5102289;28;20047;-71
2022/12/15 14:41:31;;;;;;;11.50;3.67;;;;;;;;;;5105526;28;20099;-72
2022/12/15 14:44:00;;;;;;;11.75;3.83;;;;;;;;;;5106813;28;21269;-72
2022/12/15 14:46:27;;;;;;;11.90;2.72;;;;;;;;;;5087508;28;20035;-72
2022/12/15 14:48:55;;;;;;;9.35;2.40;;;;;;;;;;5084656;28;20156;-73
2022/12/15 14:51:23;;;;;;;5.60;1.83;;;;;;;;;;5080433;28;20118;-70
2022/12/15 14:53:51;;;;;;;5.32;1.10;;;;;;;;;;5105401;28;20497;-73
2022/12/15 14:56:18;;;;;;;17.10;1.55;;;;;;;;;;5102635;28;20035;-73
2022/12/15 14:58:46;;;;;;;9.40;1.98;;;;;;;;;;5087946;28;20119;-73
2022/12/15 15:01:23;;;;;;;9.30;1.50;;;;;;;;;;5082307;28;20058;-75
2022/12/15 15:03:56;;;;;;;6.75;1.13;;;;;;;;;;5098801;28;20084;-74
2022/12/15 15:06:27;;;;;;;8.32;1.77;;;;;;;;;;5097050;28;20040;-73
2022/12/15 15:08:53;;;;;;;8.80;2.30;;;;;;;;;;5098500;28;20040;-72
2022/12/15 15:11:24;;;;;;;9.95;1.42;;;;;;;;;;5086296;28;20383;-71
2022/12/15 15:13:53;;;;;;;11.20;1.15;;;;;;;;;;5092435;28;20047;-72
2022/12/15 15:16:19;;;;;;;10.63;1.55;;;;;;;;;;5093646;28;20128;-72
2022/12/15 15:18:50;;;;;;;13.70;3.22;;;;;;;;;;5093209;28;20043;-72
2022/12/15 15:21:19;;;;;;;7.13;1.35;;;;;;;;;;5096784;28;20398;-73
2022/12/15 15:24:02;;;;;;;10.93;2.08;;;;;;;;;;5089143;28;20441;-73
2022/12/15 15:26:29;;;;;;;5.93;1.15;;;;;;;;;;5104632;28;20042;-73
2022/12/15 15:28:55;;;;;;;6.05;1.30;;;;;;;;;;5104783;28;20066;-73
2022/12/15 15:31:26;;;;;;;11.60;1.90;;;;;;;;;;5086183;28;20059;-73
2022/12/15 15:33:53;;;;;;;9.55;2.13;;;;;;;;;;5106330;28;20048;-73
2022/12/15 15:36:20;;;;;;;9.02;2.28;;;;;;;;;;5101456;28;20096;-72
2022/12/15 15:38:46;;;;;;;7.82;2.10;;;;;;;;;;5086428;28;20039;-75
2022/12/15 15:41:13;;;;;;;9.80;2.42;;;;;;;;;;5106345;28;20130;-78
2022/12/15 15:43:39;;;;;;;15.20;4.18;;;;;;;;;;5081621;28;20130;-72
2022/12/15 15:46:07;;;;;;;11.43;2.33;;;;;;;;;;5104296;28;20032;-72
2022/12/15 15:48:34;;;;;;;10.68;3.08;;;;;;;;;;5082910;28;20058;-71
2022/12/15 15:51:01;;;;;;;9.05;1.95;;;;;;;;;;5077611;28;20096;-72
2022/12/15 15:53:29;;;;;;;7.30;1.90;;;;;;;;;;5100324;28;20043;-73
2022/12/15 15:55:56;;;;;;;7.93;1.75;;;;;;;;;;5085135;28;20390;-73
2022/12/15 15:58:23;;;;;;;6.03;1.58;;;;;;;;;;5104199;28;20038;-73
2022/12/15 16:00:49;;;;;;;6.93;1.63;;;;;;;;;;5080851;28;20047;-83
2022/12/15 16:03:15;;;;;;;3.83;0.98;;;;;;;;;;5077990;28;20131;-72
2022/12/15 16:05:42;;;;;;;6.82;1.65;;;;;;;;;;5096258;28;20237;-72
2022/12/15 16:08:13;;;;;;;5.72;1.23;;;;;;;;;;5098444;28;20343;-71
2022/12/15 16:10:40;;;;;;;4.95;1.30;;;;;;;;;;5094770;28;20096;-71
2022/12/15 16:13:06;;;;;;;8.15;1.25;;;;;;;;;;5100365;28;20113;-72
2022/12/15 16:15:33;;;;;;;4.57;1.17;;;;;;;;;;5100426;28;20039;-72
2022/12/15 16:17:59;;;;;;;5.30;1.27;;;;;;;;;;5097972;28;20395;-71
2022/12/15 16:20:27;;;;;;;6.35;1.00;;;;;;;;;;5097943;28;20089;-72
2022/12/15 16:22:54;;;;;;;8.00;1.20;;;;;;;;;;5104012;28;20046;-71
2022/12/15 16:25:25;;;;;;;4.72;0.80;;;;;;;;;;5084778;28;20297;-72
2022/12/15 16:27:51;;;;;;;5.97;1.10;;;;;;;;;;5103759;28;20051;-72
2022/12/15 16:30:19;;;;;;;5.25;0.95;;;;;;;;;;5100462;28;20470;-72
2022/12/15 16:32:46;;;;;;;5.80;1.00;;;;;;;;;;5079339;28;20500;-72
2022/12/15 16:35:12;;;;;;;4.75;0.77;;;;;;;;;;5080407;28;20051;-72
2022/12/15 16:37:45;;;;;;;8.73;1.00;;;;;;;;;;5081476;28;20048;-71
2022/12/15 16:40:13;;;;;;;8.00;1.40;;;;;;;;;;5103578;28;20051;-72
2022/12/15 16:42:40;;;;;;;8.68;1.63;;;;;;;;;;5100693;28;21491;-71
2022/12/15 16:45:15;;;;;;;10.07;1.55;;;;;;;;;;5080969;28;20043;-72
2022/12/15 16:47:41;;;;;;;3.17;1.00;;;;;;;;;;5101390;28;20119;-72
2022/12/15 16:50:08;;;;;;;7.03;1.52;;;;;;;;;;5082618;28;20031;-73
2022/12/15 16:52:34;;;;;;;9.38;1.95;;;;;;;;;;5104863;28;20158;-73
2022/12/15 16:55:00;;;;;;;8.18;1.90;;;;;;;;;;5102692;28;20051;-72
2022/12/15 16:57:27;;;;;;;10.63;2.42;;;;;;;;;;5103487;28;20118;-73
2022/12/15 16:59:53;;;;;;;14.18;2.83;;;;;;;;;;5104617;28;20032;-73
2022/12/15 17:02:25;;;;;;;9.48;2.80;;;;;;;;;;5086592;28;20046;-72
2022/12/15 17:04:51;;;;;;;8.98;2.72;;;;;;;;;;5083465;28;20036;-72
2022/12/15 17:07:17;;;;;;;15.93;3.97;;;;;;;;;;5077718;28;20040;-74
2022/12/15 17:09:44;;;;;;;11.70;3.80;;;;;;;;;;5099205;28;20115;-72